Johnson City, Tennessee
Current Conditions -  °F | °C
As of 1:35 PM on Thursday 30 Oct 2014 (Local Time) from K0A9 Reporting Station
Clear Clear  
Wind Chill: 55°   Ceiling: Unl
Heat Index: 55°   Visibility: 10mi
Dew Point: 37°   Wind: 7mph
Humidity: 51%   Direction: NA
Pressure: 30.07"   Gusts: NA
Location:  36.32°N, 82.34°W
Report Text: K0A9 301735Z AUTO VRB06KT 10SM CLR 13/03 A3007 RMK
Loading
Personal Weather Stations






























Interactive Weather Map
Tropical Storm Tracking
New forecast layout! Learn more

10-Day Weather Forecast

Advertisements
Track Severe Weather on mobile